createdAt,value
2023-03-31T00:00:13.033Z,4.75
2023-03-31T00:02:42.779Z,3.10
2023-03-31T00:05:10.298Z,1.75
2023-03-31T00:07:40.313Z,3.50
2023-03-31T00:10:17.070Z,2.45
2023-03-31T00:12:46.003Z,2.38
2023-03-31T00:15:13.022Z,2.28
2023-03-31T00:17:40.086Z,2.58
2023-03-31T00:20:12.482Z,2.45
2023-03-31T00:22:42.301Z,2.88
2023-03-31T00:25:16.413Z,3.10
2023-03-31T00:27:46.941Z,2.60
2023-03-31T00:30:14.326Z,2.53
2023-03-31T00:32:41.005Z,2.65
2023-03-31T00:35:08.814Z,3.00
2023-03-31T00:37:35.610Z,2.83
2023-03-31T00:40:02.798Z,2.08
2023-03-31T00:42:29.499Z,2.72
2023-03-31T00:45:14.934Z,2.40
2023-03-31T00:50:18.897Z,3.03
2023-03-31T00:52:46.135Z,2.67
2023-03-31T00:55:17.315Z,3.35
2023-03-31T00:57:46.693Z,3.17
2023-03-31T01:00:15.555Z,1.77
2023-03-31T01:02:46.622Z,2.10
2023-03-31T01:05:13.440Z,2.13
2023-03-31T01:07:42.924Z,2.20
2023-03-31T01:10:10.836Z,2.75
2023-03-31T01:12:40.337Z,2.63
2023-03-31T01:15:08.165Z,1.55
2023-03-31T01:17:35.953Z,2.00
2023-03-31T01:20:19.327Z,5.28
2023-03-31T01:23:02.070Z,2.80
2023-03-31T01:25:55.361Z,3.90
2023-03-31T01:28:45.449Z,1.70
2023-03-31T01:31:30.789Z,2.65
2023-03-31T01:34:59.228Z,3.25
2023-03-31T01:37:56.474Z,1.60
2023-03-31T01:40:26.061Z,1.77
2023-03-31T01:43:05.588Z,4.43
2023-03-31T01:46:08.609Z,2.15
2023-03-31T01:48:54.203Z,1.80
2023-03-31T01:51:32.807Z,2.25
2023-03-31T01:54:53.166Z,2.33
2023-03-31T01:57:32.919Z,1.58
2023-03-31T02:00:11.497Z,2.53
2023-03-31T02:02:47.134Z,2.00
2023-03-31T02:07:52.889Z,1.58
2023-03-31T02:10:21.062Z,1.77
2023-03-31T02:12:47.981Z,2.25
2023-03-31T02:15:19.519Z,1.42
2023-03-31T02:17:47.760Z,1.67
2023-03-31T02:20:15.980Z,2.40
2023-03-31T02:22:46.913Z,1.30
2023-03-31T02:25:17.498Z,1.55
2023-03-31T02:27:47.834Z,1.58
2023-03-31T02:30:14.994Z,1.42
2023-03-31T02:32:44.185Z,1.48
2023-03-31T02:35:16.814Z,1.98
2023-03-31T02:37:44.062Z,1.80
2023-03-31T02:40:18.077Z,2.05
2023-03-31T02:42:45.416Z,2.05
2023-03-31T02:45:40.429Z,2.35
2023-03-31T02:48:16.192Z,1.42
2023-03-31T02:50:59.647Z,2.03
2023-03-31T02:53:46.518Z,2.80
2023-03-31T02:56:22.616Z,2.22
2023-03-31T02:59:16.701Z,2.55
2023-03-31T03:02:01.451Z,1.80
2023-03-31T03:05:03.136Z,3.10
2023-03-31T03:07:39.563Z,2.00
2023-03-31T03:10:09.971Z,1.90
2023-03-31T03:13:08.940Z,1.83
2023-03-31T03:15:48.574Z,2.42
2023-03-31T03:18:15.636Z,1.50
2023-03-31T03:20:43.357Z,2.55
2023-03-31T03:23:10.340Z,2.10
2023-03-31T03:25:37.805Z,3.30
2023-03-31T03:28:04.538Z,2.30
2023-03-31T03:30:31.167Z,2.63
2023-03-31T03:32:59.004Z,2.28
2023-03-31T03:35:26.175Z,2.10
2023-03-31T03:37:52.896Z,1.98
2023-03-31T03:40:19.822Z,2.53
2023-03-31T03:42:46.598Z,2.00
2023-03-31T03:45:13.252Z,2.15
2023-03-31T03:47:39.945Z,1.60
2023-03-31T03:50:07.302Z,2.63
2023-03-31T03:52:34.008Z,2.17
2023-03-31T03:55:01.944Z,2.28
2023-03-31T03:57:28.641Z,4.22
2023-03-31T03:59:55.360Z,3.72
2023-03-31T04:02:22.033Z,3.95
2023-03-31T04:04:48.750Z,2.42
2023-03-31T04:07:15.574Z,3.25
2023-03-31T04:09:42.213Z,3.75
2023-03-31T04:12:08.900Z,4.00
2023-03-31T04:14:35.729Z,5.80
2023-03-31T04:17:03.393Z,6.05
2023-03-31T04:19:30.182Z,5.28
2023-03-31T04:22:02.921Z,8.45
2023-03-31T04:24:32.905Z,9.38
2023-03-31T04:27:00.846Z,7.55
2023-03-31T04:29:27.533Z,7.82
2023-03-31T04:31:58.826Z,6.43
2023-03-31T04:34:35.071Z,5.55
2023-03-31T04:37:02.879Z,5.05
2023-03-31T04:39:33.470Z,4.78
2023-03-31T04:42:01.155Z,4.78
2023-03-31T04:44:28.368Z,5.38
2023-03-31T04:46:55.843Z,6.00
2023-03-31T04:49:22.886Z,4.28
2023-03-31T04:51:49.632Z,4.82
2023-03-31T04:54:16.795Z,4.07
2023-03-31T04:56:43.545Z,4.75
2023-03-31T04:59:10.373Z,5.18
2023-03-31T05:01:37.440Z,4.22
2023-03-31T05:04:05.408Z,4.30
2023-03-31T05:06:32.512Z,4.97
2023-03-31T05:08:59.150Z,4.32
2023-03-31T05:11:26.802Z,3.97
2023-03-31T05:13:53.688Z,4.10
2023-03-31T05:16:20.433Z,3.72
2023-03-31T05:18:47.719Z,4.50
2023-03-31T05:21:19.922Z,3.65
2023-03-31T05:23:47.212Z,4.85
2023-03-31T05:26:14.409Z,4.45
2023-03-31T05:28:41.829Z,3.83
2023-03-31T05:31:09.515Z,4.57
2023-03-31T05:33:40.501Z,4.68
2023-03-31T05:36:16.210Z,4.22
2023-03-31T05:38:43.648Z,3.55
2023-03-31T05:41:11.128Z,5.03
2023-03-31T05:43:39.407Z,2.90
2023-03-31T05:46:07.046Z,3.63
2023-03-31T05:48:33.992Z,3.42
2023-03-31T05:51:01.678Z,3.90
2023-03-31T05:53:28.804Z,6.10
2023-03-31T05:55:59.778Z,3.50
2023-03-31T05:58:26.863Z,4.60
2023-03-31T06:01:08.721Z,3.72
2023-03-31T06:03:37.741Z,12.63
2023-03-31T06:06:06.331Z,6.55
2023-03-31T06:08:33.086Z,7.28
2023-03-31T06:10:59.777Z,3.70
2023-03-31T06:13:26.637Z,5.28
2023-03-31T06:15:55.163Z,5.35
2023-03-31T06:18:21.968Z,5.88
2023-03-31T06:20:48.976Z,4.22
2023-03-31T06:23:15.883Z,7.05
2023-03-31T06:25:50.956Z,3.72
2023-03-31T06:28:18.685Z,5.80
2023-03-31T06:30:45.590Z,3.70
2023-03-31T06:33:13.312Z,4.13
2023-03-31T06:35:41.483Z,3.20
2023-03-31T06:38:08.466Z,3.00
2023-03-31T06:40:35.340Z,3.40
2023-03-31T06:43:01.981Z,3.70
2023-03-31T06:45:29.108Z,4.20
2023-03-31T06:47:55.764Z,3.72
2023-03-31T06:50:22.476Z,2.78
2023-03-31T06:52:52.728Z,4.20
2023-03-31T06:55:19.397Z,7.20
2023-03-31T06:57:46.410Z,4.25
2023-03-31T07:00:13.724Z,3.00
2023-03-31T07:02:40.953Z,3.38
2023-03-31T07:05:07.919Z,2.50
2023-03-31T07:07:34.813Z,3.90
2023-03-31T07:10:01.536Z,3.85
2023-03-31T07:12:28.470Z,2.42
2023-03-31T07:14:55.077Z,4.15
2023-03-31T07:17:21.740Z,2.80
2023-03-31T07:19:48.491Z,3.75
2023-03-31T07:22:15.798Z,2.72
2023-03-31T07:24:42.589Z,3.80
2023-03-31T07:27:09.437Z,3.20
2023-03-31T07:29:36.052Z,4.47
2023-03-31T07:32:02.808Z,3.83
2023-03-31T07:34:29.613Z,3.53
2023-03-31T07:36:56.486Z,3.58
2023-03-31T07:39:23.210Z,3.58
2023-03-31T07:41:49.972Z,2.95
2023-03-31T07:44:17.663Z,3.58
2023-03-31T07:46:44.494Z,5.68
2023-03-31T07:49:15.942Z,2.78
2023-03-31T07:51:42.928Z,2.63
2023-03-31T07:54:09.604Z,3.08
2023-03-31T07:56:36.469Z,2.53
2023-03-31T07:59:03.267Z,2.78
2023-03-31T08:01:30.261Z,3.03
2023-03-31T08:03:57.429Z,2.60
2023-03-31T08:06:25.530Z,3.58
2023-03-31T08:08:52.685Z,3.10
2023-03-31T08:11:21.255Z,3.05
2023-03-31T08:13:48.514Z,3.53
2023-03-31T08:16:15.682Z,3.05
2023-03-31T08:18:42.704Z,2.40
2023-03-31T08:21:12.245Z,2.95
2023-03-31T08:23:39.007Z,2.20
2023-03-31T08:26:19.866Z,3.03
2023-03-31T08:28:49.080Z,3.55
2023-03-31T08:31:17.337Z,2.63
2023-03-31T08:33:44.732Z,2.38
2023-03-31T08:36:12.043Z,5.10
2023-03-31T08:38:41.895Z,3.05
2023-03-31T08:41:19.878Z,2.97
2023-03-31T08:43:50.535Z,3.80
2023-03-31T08:46:18.251Z,2.95
2023-03-31T08:48:48.980Z,3.40
2023-03-31T08:51:24.444Z,1.70
2023-03-31T08:53:58.526Z,2.15
2023-03-31T08:56:27.313Z,3.23
2023-03-31T08:58:54.100Z,1.75
2023-03-31T09:01:56.208Z,1.85
2023-03-31T09:05:11.514Z,3.15
2023-03-31T09:08:14.678Z,3.00
2023-03-31T09:10:50.369Z,2.40
2023-03-31T09:13:52.075Z,2.30
2023-03-31T09:16:24.473Z,2.35
2023-03-31T09:18:53.665Z,2.38
2023-03-31T09:21:29.622Z,2.10
2023-03-31T09:24:15.173Z,2.20
2023-03-31T09:26:54.936Z,1.90
2023-03-31T09:29:31.489Z,1.92
2023-03-31T09:32:03.281Z,2.05
2023-03-31T09:34:32.610Z,2.33
2023-03-31T09:36:59.435Z,2.50
2023-03-31T09:39:26.425Z,1.90
2023-03-31T09:41:54.216Z,2.15
2023-03-31T09:44:47.307Z,2.33
2023-03-31T09:47:17.462Z,2.15
2023-03-31T09:49:53.994Z,2.25
2023-03-31T09:52:31.721Z,2.20
2023-03-31T09:55:01.256Z,2.22
2023-03-31T09:57:34.036Z,2.15
2023-03-31T10:00:13.944Z,2.30
2023-03-31T10:02:45.580Z,1.80
2023-03-31T10:05:51.624Z,2.40
2023-03-31T10:08:25.726Z,1.95
2023-03-31T10:10:55.421Z,1.73
2023-03-31T10:13:26.810Z,2.45
2023-03-31T10:16:10.079Z,2.00
2023-03-31T10:18:39.597Z,1.90
2023-03-31T10:21:08.336Z,3.22
2023-03-31T10:23:36.114Z,2.22
2023-03-31T10:26:04.071Z,1.60
2023-03-31T10:28:33.167Z,2.10
2023-03-31T10:31:04.260Z,2.03
2023-03-31T10:33:34.956Z,2.17
2023-03-31T10:36:23.680Z,1.50
2023-03-31T10:38:51.046Z,2.45
2023-03-31T10:41:22.008Z,2.95
2023-03-31T10:43:54.136Z,2.08
2023-03-31T10:46:21.501Z,2.05
2023-03-31T10:48:48.144Z,1.98
2023-03-31T10:51:20.659Z,1.60
2023-03-31T10:53:49.965Z,1.67
2023-03-31T10:56:37.001Z,1.30
2023-03-31T10:59:10.288Z,2.05
2023-03-31T11:01:37.082Z,1.65
2023-03-31T11:04:25.507Z,1.70
2023-03-31T11:07:18.062Z,1.85
2023-03-31T11:10:09.541Z,1.98
2023-03-31T11:13:00.767Z,1.67
2023-03-31T11:15:34.157Z,2.50
2023-03-31T11:18:09.775Z,1.67
2023-03-31T11:20:48.486Z,2.58
2023-03-31T11:23:31.112Z,2.28
2023-03-31T11:26:06.587Z,1.92
2023-03-31T11:28:36.218Z,2.10
2023-03-31T11:31:24.450Z,1.33
2023-03-31T11:34:29.717Z,1.60
2023-03-31T11:37:17.196Z,1.93
2023-03-31T11:40:19.555Z,1.55
2023-03-31T11:42:59.354Z,2.05
2023-03-31T11:45:29.541Z,1.50
2023-03-31T11:47:59.612Z,1.70
2023-03-31T11:50:29.606Z,1.40
2023-03-31T11:53:06.699Z,2.45
2023-03-31T11:55:34.490Z,2.00
2023-03-31T11:58:15.162Z,1.55
2023-03-31T12:00:52.105Z,2.20
2023-03-31T12:03:49.820Z,2.92
2023-03-31T12:06:20.312Z,2.42
2023-03-31T12:09:24.729Z,2.40
2023-03-31T12:12:13.361Z,2.20
2023-03-31T12:14:47.228Z,2.03
2023-03-31T12:17:16.171Z,1.45
2023-03-31T12:19:50.892Z,2.20
2023-03-31T12:22:29.989Z,1.30
2023-03-31T12:24:56.727Z,2.75
2023-03-31T12:27:51.517Z,2.30
2023-03-31T12:30:27.884Z,2.10
2023-03-31T12:33:16.370Z,1.63
2023-03-31T12:35:54.891Z,1.85
2023-03-31T12:38:31.115Z,1.58
2023-03-31T12:41:16.278Z,2.10
2023-03-31T12:43:52.551Z,1.80
2023-03-31T12:46:40.989Z,2.53
2023-03-31T12:49:32.407Z,1.33
2023-03-31T12:52:00.995Z,1.27
2023-03-31T12:54:48.808Z,1.33
2023-03-31T12:57:21.881Z,2.63
2023-03-31T13:00:11.671Z,1.63
2023-03-31T13:02:39.498Z,1.30
2023-03-31T13:05:40.512Z,1.38
2023-03-31T13:08:10.546Z,1.40
2023-03-31T13:10:57.761Z,4.22
2023-03-31T13:13:25.461Z,1.20
2023-03-31T13:15:57.048Z,1.52
2023-03-31T13:18:24.285Z,1.20
2023-03-31T13:21:05.454Z,2.45
2023-03-31T13:23:35.451Z,1.73
2023-03-31T13:26:02.453Z,1.38
2023-03-31T13:28:39.048Z,1.58
2023-03-31T13:31:08.320Z,1.42
2023-03-31T13:33:57.483Z,2.17
2023-03-31T13:36:24.395Z,1.63
2023-03-31T13:39:06.324Z,1.95
2023-03-31T13:41:43.296Z,2.42
2023-03-31T13:44:51.075Z,1.60
2023-03-31T13:47:35.973Z,2.75
2023-03-31T13:50:17.821Z,1.35
2023-03-31T13:52:57.800Z,2.08
2023-03-31T13:55:54.864Z,1.30
2023-03-31T13:58:33.721Z,1.42
2023-03-31T14:01:41.169Z,1.20
2023-03-31T14:04:16.818Z,1.92
2023-03-31T14:06:56.046Z,1.83
2023-03-31T14:09:26.690Z,1.35
2023-03-31T14:11:53.394Z,1.58
2023-03-31T14:14:20.426Z,2.08
2023-03-31T14:16:56.132Z,1.40
2023-03-31T14:19:34.977Z,1.65
2023-03-31T14:22:07.668Z,1.30
2023-03-31T14:24:42.037Z,1.25
2023-03-31T14:27:20.928Z,1.20
2023-03-31T14:30:02.509Z,1.45
2023-03-31T14:32:33.510Z,1.38
2023-03-31T14:35:23.956Z,1.65
2023-03-31T14:37:51.230Z,1.30
2023-03-31T14:40:18.661Z,1.10
2023-03-31T14:42:49.747Z,2.35
2023-03-31T14:45:18.296Z,1.63
2023-03-31T14:47:57.116Z,1.35
2023-03-31T14:50:34.999Z,1.35
2023-03-31T14:53:02.439Z,1.40
2023-03-31T14:55:44.235Z,1.55
2023-03-31T14:58:24.940Z,1.35
2023-03-31T15:00:52.539Z,1.48
2023-03-31T15:03:19.256Z,3.25
2023-03-31T15:05:48.236Z,2.05
2023-03-31T15:08:22.994Z,2.08
2023-03-31T15:11:02.439Z,2.08
2023-03-31T15:13:56.584Z,1.55
2023-03-31T15:16:34.916Z,1.35
2023-03-31T15:19:07.592Z,2.08
2023-03-31T15:21:37.585Z,1.58
2023-03-31T15:24:05.205Z,3.17
2023-03-31T15:26:41.269Z,2.60
2023-03-31T15:29:22.262Z,1.83
2023-03-31T15:31:49.274Z,1.65
2023-03-31T15:34:37.026Z,2.53
2023-03-31T15:37:07.200Z,1.58
2023-03-31T15:39:36.435Z,1.60
2023-03-31T15:42:05.984Z,1.25
2023-03-31T15:44:38.149Z,1.73
2023-03-31T15:47:20.910Z,2.92
2023-03-31T15:50:07.582Z,6.78
2023-03-31T15:52:36.216Z,12.93
2023-03-31T15:55:29.701Z,19.30
2023-03-31T15:58:00.842Z,6.90
2023-03-31T16:00:34.225Z,9.25
2023-03-31T16:03:02.674Z,5.93
2023-03-31T16:05:43.682Z,6.65
2023-03-31T16:08:38.140Z,5.60
2023-03-31T16:11:08.668Z,3.08
2023-03-31T16:13:38.743Z,6.40
2023-03-31T16:16:09.257Z,4.50
2023-03-31T16:18:40.004Z,3.28
2023-03-31T16:21:07.474Z,2.53
2023-03-31T16:23:38.626Z,2.75
2023-03-31T16:26:07.064Z,3.22
2023-03-31T16:28:36.118Z,2.25
2023-03-31T16:31:03.626Z,3.05
2023-03-31T16:33:31.708Z,3.30
2023-03-31T16:35:59.008Z,1.85
2023-03-31T16:38:28.110Z,1.45
2023-03-31T16:40:56.468Z,2.08
2023-03-31T16:43:28.395Z,3.80
2023-03-31T16:45:56.920Z,1.65
2023-03-31T16:48:25.726Z,2.38
2023-03-31T16:50:54.558Z,3.15
2023-03-31T16:53:27.837Z,5.20
2023-03-31T16:55:55.554Z,2.00
2023-03-31T16:58:24.122Z,2.08
2023-03-31T17:00:51.444Z,1.33
2023-03-31T17:03:18.828Z,1.80
2023-03-31T17:05:47.754Z,2.65
2023-03-31T17:08:16.024Z,4.03
2023-03-31T17:10:42.911Z,1.63
2023-03-31T17:13:10.038Z,1.42
2023-03-31T17:15:37.919Z,3.20
2023-03-31T17:18:05.242Z,2.40
2023-03-31T17:20:32.846Z,1.30
2023-03-31T17:22:59.842Z,2.53
2023-03-31T17:25:26.810Z,3.00
2023-03-31T17:27:55.561Z,1.95
2023-03-31T17:30:22.924Z,1.90
2023-03-31T17:32:51.510Z,1.30
2023-03-31T17:35:22.524Z,1.27
2023-03-31T17:37:55.362Z,2.60
2023-03-31T17:40:25.230Z,2.53
2023-03-31T17:42:53.938Z,2.17
2023-03-31T17:45:20.595Z,1.90
2023-03-31T17:47:47.294Z,2.45
2023-03-31T17:50:14.124Z,1.35
2023-03-31T17:52:41.041Z,1.65
2023-03-31T17:55:08.149Z,2.70
2023-03-31T17:57:36.951Z,7.63
2023-03-31T18:00:10.491Z,12.63
2023-03-31T18:02:38.239Z,10.77
2023-03-31T18:05:07.236Z,7.22
2023-03-31T18:07:34.894Z,5.35
2023-03-31T18:10:02.445Z,6.05
2023-03-31T18:12:29.721Z,3.47
2023-03-31T18:14:56.714Z,2.67
2023-03-31T18:17:24.072Z,3.20
2023-03-31T18:19:50.828Z,2.10
2023-03-31T18:22:17.638Z,3.42
2023-03-31T18:24:44.510Z,1.92
2023-03-31T18:27:11.985Z,2.50
2023-03-31T18:29:39.843Z,4.32
2023-03-31T18:32:07.008Z,2.47
2023-03-31T18:34:36.621Z,3.20
2023-03-31T18:37:05.449Z,2.17
2023-03-31T18:39:32.359Z,3.05
2023-03-31T18:41:59.616Z,2.55
2023-03-31T18:44:29.491Z,2.40
2023-03-31T18:46:56.765Z,1.80
2023-03-31T18:49:23.563Z,1.52
2023-03-31T18:51:50.514Z,1.58
2023-03-31T18:54:17.566Z,5.32
2023-03-31T18:56:44.278Z,1.58
2023-03-31T18:59:10.960Z,3.55
2023-03-31T19:01:40.198Z,2.00
2023-03-31T19:04:09.988Z,1.70
2023-03-31T19:06:36.685Z,2.85
2023-03-31T19:09:03.649Z,1.33
2023-03-31T19:11:30.671Z,1.83
2023-03-31T19:13:57.313Z,1.42
2023-03-31T19:16:27.622Z,2.85
2023-03-31T19:18:54.730Z,3.50
2023-03-31T19:21:21.971Z,2.05
2023-03-31T19:23:49.230Z,4.13
2023-03-31T19:26:19.512Z,5.65
2023-03-31T19:28:47.968Z,4.15
2023-03-31T19:31:15.473Z,3.83
2023-03-31T19:33:42.419Z,4.45
2023-03-31T19:36:09.146Z,2.97
2023-03-31T19:38:36.824Z,4.68
2023-03-31T19:41:07.265Z,3.92
2023-03-31T19:43:34.240Z,4.65
2023-03-31T19:46:01.385Z,4.00
2023-03-31T19:48:31.250Z,4.43
2023-03-31T19:51:04.319Z,4.07
2023-03-31T19:53:31.649Z,3.78
2023-03-31T19:56:01.030Z,3.17
2023-03-31T19:58:28.516Z,3.25
2023-03-31T20:00:56.263Z,3.90
2023-03-31T20:03:24.870Z,6.93
2023-03-31T20:05:52.010Z,4.07
2023-03-31T20:08:21.710Z,2.13
2023-03-31T20:10:49.256Z,3.40
2023-03-31T20:13:15.934Z,2.55
2023-03-31T20:15:42.854Z,2.13
2023-03-31T20:18:09.660Z,3.88
2023-03-31T20:20:36.362Z,1.35
2023-03-31T20:23:03.985Z,3.58
2023-03-31T20:25:30.931Z,2.60
2023-03-31T20:27:57.795Z,2.55
2023-03-31T20:30:24.491Z,2.85
2023-03-31T20:32:51.262Z,2.40
2023-03-31T20:35:18.242Z,3.42
2023-03-31T20:37:44.942Z,2.70
2023-03-31T20:40:12.248Z,2.42
2023-03-31T20:42:38.956Z,3.40
2023-03-31T20:45:06.731Z,2.17
2023-03-31T20:47:35.339Z,2.60
2023-03-31T20:50:02.934Z,2.40
2023-03-31T20:52:29.865Z,1.88
2023-03-31T20:54:56.921Z,1.60
2023-03-31T20:57:26.277Z,2.00
2023-03-31T20:59:53.065Z,2.47
2023-03-31T21:02:19.797Z,1.60
2023-03-31T21:04:49.074Z,1.70
2023-03-31T21:07:17.150Z,2.35
2023-03-31T21:09:43.916Z,2.05
2023-03-31T21:12:11.115Z,1.90
2023-03-31T21:14:37.841Z,2.00
2023-03-31T21:17:04.594Z,1.70
2023-03-31T21:19:31.946Z,2.72
2023-03-31T21:21:58.634Z,2.60
2023-03-31T21:24:25.950Z,2.10
2023-03-31T21:26:52.714Z,1.63
2023-03-31T21:29:19.355Z,2.13
2023-03-31T21:31:47.144Z,3.25
2023-03-31T21:34:13.914Z,2.97
2023-03-31T21:36:40.630Z,1.40
2023-03-31T21:39:07.869Z,2.80
2023-03-31T21:41:34.838Z,2.10
2023-03-31T21:44:02.784Z,2.75
2023-03-31T21:46:31.834Z,1.40
2023-03-31T21:48:58.976Z,2.30
2023-03-31T21:51:26.949Z,2.42
2023-03-31T21:53:55.432Z,2.53
2023-03-31T21:56:24.049Z,1.52
2023-03-31T21:58:51.143Z,2.20
2023-03-31T22:01:18.678Z,2.65
2023-03-31T22:03:45.844Z,2.10
2023-03-31T22:06:13.053Z,2.90
2023-03-31T22:08:39.795Z,2.15
2023-03-31T22:11:08.540Z,1.05
2023-03-31T22:13:35.921Z,1.85
2023-03-31T22:16:03.215Z,1.58
2023-03-31T22:18:30.753Z,1.33
2023-03-31T22:20:58.023Z,1.75
2023-03-31T22:23:24.713Z,1.83
2023-03-31T22:25:51.453Z,2.95
2023-03-31T22:28:18.205Z,2.28
2023-03-31T22:30:44.895Z,1.52
2023-03-31T22:33:11.713Z,1.90
2023-03-31T22:35:38.513Z,1.30
2023-03-31T22:38:06.429Z,2.25
2023-03-31T22:40:35.014Z,1.17
2023-03-31T22:43:01.935Z,1.73
2023-03-31T22:45:28.645Z,1.10
2023-03-31T22:47:55.523Z,2.55
2023-03-31T22:50:22.842Z,1.50
2023-03-31T22:52:49.538Z,1.13
2023-03-31T22:55:16.251Z,1.40
2023-03-31T22:57:43.064Z,1.50
2023-03-31T23:00:10.516Z,1.10
2023-03-31T23:02:37.198Z,2.38
2023-03-31T23:05:04.099Z,1.75
2023-03-31T23:07:30.800Z,1.40
2023-03-31T23:09:57.486Z,1.35
2023-03-31T23:12:27.777Z,1.10
2023-03-31T23:14:54.627Z,1.20
2023-03-31T23:17:23.800Z,1.98
2023-03-31T23:19:50.563Z,1.85
2023-03-31T23:22:17.237Z,1.42
2023-03-31T23:24:43.999Z,0.80
2023-03-31T23:27:10.785Z,1.58
2023-03-31T23:29:37.540Z,1.15
2023-03-31T23:32:04.469Z,1.38
2023-03-31T23:34:31.529Z,1.30
2023-03-31T23:36:58.192Z,1.33
2023-03-31T23:39:25.672Z,0.80
2023-03-31T23:41:52.540Z,2.85
2023-03-31T23:44:19.493Z,1.08
2023-03-31T23:46:46.226Z,0.88
2023-03-31T23:49:13.008Z,1.50
2023-03-31T23:51:39.656Z,2.08
2023-03-31T23:54:06.644Z,1.48
2023-03-31T23:56:34.463Z,1.65
2023-03-31T23:59:01.388Z,1.08
